Starke, FL

2:00 PM EDT on August 28, 2015 (GMT -0400)
Keystone Airpark, Keystone He | | Change Station
CLOSE
Current Station
Airport
Location: Keystone Airpark, Keystone He,
Elevation: 197 ft
Nearby Weather Stations

Elev 197 ft 29.84 °N, 82.05 °W | Updated 5 minutes ago

Clear
Clear
90 °F
Feels Like 96 °F
N
8
Wind Variable Wind from ESE

Today
High -- | Low -- °F
--% Chance of Precip.
Yesterday
High -- | Low -- °F
Precip. -- in
7:03 AM 7:55 PM
Waxing Gibbous, 98% visible
Pressure 30.04 in
Visibility 10.0 miles
Clouds Scattered Clouds 4100 ft
Heat Index 96 °F
Dew Point 72 °F
Humidity 55%
Rainfall 0.00 in
Snow Depth Not available.
UV 11 out of 12
Pollen 6.10 out of 12
Air Quality Not available.
Flu Activity Not available.
METAR K42J 281755Z AUTO 12007KT 10SM SCT041 32/22 A3004 RMK AO1 TSNO
Pressure 30.04 in
Visibility 10.0 miles
Clouds Scattered Clouds 4100 ft
Heat Index 96 °F
Dew Point 72 °F
Humidity 55%
Rainfall 0.00 in
Snow Depth Not available.
UV 11 out of 12
Pollen 6.10 out of 12
Air Quality Not available.
Flu Activity Not available.
METAR K42J 281755Z AUTO 12007KT 10SM SCT041 32/22 A3004 RMK AO1 TSNO
Erika has become very unorganized in the face of strong wind shear in the eastern Caribbean Sea. The storm will pass directly over mountainous Hispaniola today, likely weakening it further. If the storm remains intact, it could reach an area favorable for strengthening before moving onto Florida by early next week. Follow the live blog

10-Day Weather Forecast

×

Almanac

Astronomy

Aug. 28, 2015 Rise Set
Actual Time
Civil Twilight
Nautical Twilight
Astronomical Twilight
Moon
Length of Visible Light
Length of Day
Tomorrow will be .
, % of the Moon is Illuminated

Today's Extremes

State Highs State Lows

Community

WunderPhotos

Upload Photos

1,850,447 photos uploaded!

WunderBlogs® & News

Nearby

Air Quality

  Air Quality AQ Index Pollutant
Not available.

Snow Depth

Station Depth Elevation

Earthquake Activity

City Distance Mag. Time & Date
Minimum magnitude displayed is 2.5.

Coastal Water Temperatures

Place Temperature

Stations

Nearby Weather Stations

Station Location Temp. Windchill Dew Point Humidity Wind Precip. Elev Updated Type